createdAt,value
2023-01-22T00:00:16.491Z,31.00
2023-01-22T00:04:21.804Z,34.70
2023-01-22T00:07:46.026Z,17.50
2023-01-22T00:11:42.509Z,33.80
2023-01-22T00:15:09.297Z,36.70
2023-01-22T00:18:44.443Z,27.90
2023-01-22T00:22:22.157Z,29.20
2023-01-22T00:26:20.325Z,27.50
2023-01-22T00:29:46.663Z,33.40
2023-01-22T00:33:24.585Z,30.70
2023-01-22T00:37:02.716Z,35.40
2023-01-22T00:41:04.037Z,30.80
2023-01-22T00:44:28.324Z,34.30
2023-01-22T00:48:06.515Z,28.40
2023-01-22T00:51:46.114Z,21.70
2023-01-22T00:55:22.721Z,33.70
2023-01-22T00:59:20.361Z,36.70
2023-01-22T01:03:07.138Z,32.60
2023-01-22T01:06:50.182Z,27.20
2023-01-22T01:10:14.610Z,25.00
2023-01-22T01:13:54.484Z,34.30
2023-01-22T01:17:51.050Z,25.20
2023-01-22T01:21:24.810Z,20.70
2023-01-22T01:25:14.183Z,21.30
2023-01-22T01:28:42.522Z,14.90
2023-01-22T01:32:18.847Z,8.80
2023-01-22T01:36:40.269Z,21.50
2023-01-22T01:40:07.173Z,17.00
2023-01-22T01:43:47.011Z,23.80
2023-01-22T01:47:34.698Z,20.20
2023-01-22T01:51:05.000Z,18.40
2023-01-22T01:54:44.287Z,19.30
2023-01-22T01:58:21.731Z,17.40
2023-01-22T02:02:13.282Z,14.50
2023-01-22T02:05:57.063Z,15.70
2023-01-22T02:09:21.777Z,12.40
2023-01-22T02:13:25.938Z,15.00
2023-01-22T02:17:01.909Z,10.60
2023-01-22T02:20:29.766Z,17.70
2023-01-22T02:24:12.101Z,14.40
2023-01-22T02:28:02.209Z,15.30
2023-01-22T02:31:28.704Z,12.80
2023-01-22T02:35:26.149Z,10.50
2023-01-22T02:38:51.365Z,17.20
2023-01-22T02:42:29.280Z,16.40
2023-01-22T02:46:27.729Z,17.10
2023-01-22T02:49:54.646Z,14.10
2023-01-22T02:53:29.994Z,14.80
2023-01-22T02:57:07.427Z,17.30
2023-01-22T03:01:18.325Z,15.40
2023-01-22T03:04:43.815Z,12.70
2023-01-22T03:08:39.142Z,8.20
2023-01-22T03:12:03.819Z,7.40
2023-01-22T03:16:21.962Z,8.70
2023-01-22T03:20:07.101Z,5.90
2023-01-22T03:23:32.767Z,13.80
2023-01-22T03:27:09.264Z,11.20
2023-01-22T03:30:46.735Z,8.90
2023-01-22T03:34:26.700Z,13.20
2023-01-22T03:38:21.179Z,7.60
2023-01-22T03:42:04.065Z,14.10
2023-01-22T03:45:28.628Z,7.90
2023-01-22T03:49:09.926Z,7.10
2023-01-22T03:53:03.527Z,9.40
2023-01-22T03:56:48.549Z,13.20
2023-01-22T04:00:19.679Z,7.10
2023-01-22T04:03:57.308Z,7.30
2023-01-22T04:07:33.649Z,8.70
2023-01-22T04:11:13.652Z,6.70
2023-01-22T04:15:08.903Z,8.40
2023-01-22T04:18:35.130Z,8.10
2023-01-22T04:22:17.337Z,9.20
2023-01-22T04:26:14.289Z,11.50
2023-01-22T04:29:39.237Z,7.40
2023-01-22T04:33:38.606Z,20.20
2023-01-22T04:37:08.325Z,8.00
2023-01-22T04:41:03.002Z,6.70
2023-01-22T04:44:28.920Z,9.70
2023-01-22T04:48:05.733Z,10.60
2023-01-22T04:51:43.930Z,3.20
2023-01-22T04:55:25.407Z,2.30
2023-01-22T04:59:00.889Z,7.00
2023-01-22T05:02:41.747Z,6.90
2023-01-22T05:06:18.214Z,3.70
2023-01-22T05:09:56.505Z,5.00
2023-01-22T05:13:31.619Z,15.80
2023-01-22T05:17:29.689Z,6.50
2023-01-22T05:20:55.495Z,7.00
2023-01-22T05:24:50.344Z,10.20
2023-01-22T05:28:18.347Z,10.40
2023-01-22T05:32:05.256Z,8.00
2023-01-22T05:35:45.105Z,10.50
2023-01-22T05:39:40.776Z,8.10
2023-01-22T05:43:08.124Z,10.00
2023-01-22T05:46:45.341Z,6.40
2023-01-22T05:50:36.696Z,10.90
2023-01-22T05:54:12.499Z,5.70
2023-01-22T05:57:51.238Z,6.50
2023-01-22T06:01:26.619Z,2.30
2023-01-22T06:05:04.966Z,2.80
2023-01-22T06:08:43.934Z,4.90
2023-01-22T06:12:41.399Z,10.30
2023-01-22T06:16:28.016Z,13.10
2023-01-22T06:20:18.812Z,6.10
2023-01-22T06:23:56.942Z,5.60
2023-01-22T06:27:52.478Z,7.00
2023-01-22T06:31:18.278Z,14.90
2023-01-22T06:35:17.775Z,12.00
2023-01-22T06:38:42.423Z,13.20
2023-01-22T06:42:20.537Z,8.40
2023-01-22T06:45:59.065Z,13.10
2023-01-22T06:49:49.065Z,9.20
2023-01-22T06:53:29.219Z,7.80
2023-01-22T06:57:22.259Z,8.50
2023-01-22T07:00:48.627Z,9.60
2023-01-22T07:04:45.432Z,10.70
2023-01-22T07:08:16.071Z,13.50
2023-01-22T07:11:49.515Z,13.70
2023-01-22T07:15:26.776Z,8.50
2023-01-22T07:19:04.530Z,12.40
2023-01-22T07:22:43.407Z,9.90
2023-01-22T07:26:19.979Z,10.50
2023-01-22T07:29:57.374Z,8.50
2023-01-22T07:33:57.402Z,9.70
2023-01-22T07:37:21.133Z,4.40
2023-01-22T07:41:25.821Z,7.80
2023-01-22T07:44:53.751Z,8.50
2023-01-22T07:48:33.163Z,2.60
2023-01-22T07:52:07.860Z,8.70
2023-01-22T07:55:48.335Z,7.70
2023-01-22T07:59:24.700Z,9.70
2023-01-22T08:03:01.723Z,9.50
2023-01-22T08:06:57.060Z,10.10
2023-01-22T08:10:44.574Z,14.00
2023-01-22T08:14:13.131Z,12.10
2023-01-22T08:17:51.169Z,8.80
2023-01-22T08:21:27.842Z,10.20
2023-01-22T08:25:02.110Z,10.90
2023-01-22T08:28:41.171Z,11.30
2023-01-22T08:32:19.298Z,9.30
2023-01-22T08:35:55.079Z,9.50
2023-01-22T08:39:32.872Z,9.90
2023-01-22T08:43:29.460Z,12.00
2023-01-22T08:47:15.588Z,12.10
2023-01-22T08:51:01.800Z,12.90
2023-01-22T08:54:26.262Z,10.50
2023-01-22T08:58:03.651Z,8.20
2023-01-22T09:02:00.466Z,10.30
2023-01-22T09:05:24.531Z,10.60
2023-01-22T09:09:05.207Z,7.50
2023-01-22T09:13:01.280Z,10.20
2023-01-22T09:16:27.463Z,10.20
2023-01-22T09:20:24.923Z,10.80
2023-01-22T09:23:53.293Z,12.80
2023-01-22T09:27:47.657Z,7.90
2023-01-22T09:31:17.257Z,9.30
2023-01-22T09:34:51.921Z,13.80
2023-01-22T09:38:26.823Z,16.30
2023-01-22T09:42:10.937Z,8.00
2023-01-22T09:45:44.918Z,11.00
2023-01-22T09:49:26.588Z,12.10
2023-01-22T09:53:01.201Z,9.70
2023-01-22T09:56:42.021Z,7.00
2023-01-22T10:00:20.862Z,9.80
2023-01-22T10:04:43.514Z,11.70
2023-01-22T10:08:33.069Z,8.70
2023-01-22T10:12:06.737Z,8.80
2023-01-22T10:15:40.000Z,13.60
2023-01-22T10:19:34.468Z,6.90
2023-01-22T10:23:08.736Z,11.90
2023-01-22T10:26:45.436Z,9.40
2023-01-22T10:30:49.338Z,8.20
2023-01-22T10:34:36.428Z,9.10
2023-01-22T10:38:01.688Z,6.00
2023-01-22T10:42:01.599Z,2.30
2023-01-22T10:45:51.567Z,6.10
2023-01-22T10:49:17.592Z,9.70
2023-01-22T10:52:55.813Z,5.00
2023-01-22T10:56:39.961Z,9.90
2023-01-22T11:00:14.401Z,15.40
2023-01-22T11:03:48.937Z,4.40
2023-01-22T11:07:32.590Z,11.80
2023-01-22T11:11:11.423Z,11.10
2023-01-22T11:14:41.529Z,5.80
2023-01-22T11:19:03.330Z,7.20
2023-01-22T11:22:35.251Z,9.60
2023-01-22T11:26:25.416Z,5.90
2023-01-22T11:30:07.704Z,4.50
2023-01-22T11:33:48.429Z,11.30
2023-01-22T11:37:38.999Z,13.20
2023-01-22T11:41:19.352Z,11.70
2023-01-22T11:45:29.394Z,14.20
2023-01-22T11:49:24.943Z,14.10
2023-01-22T11:53:26.099Z,13.90
2023-01-22T11:57:26.280Z,2.00
2023-01-22T12:01:27.002Z,6.10
2023-01-22T12:05:00.598Z,10.50
2023-01-22T12:08:44.818Z,11.90
2023-01-22T12:12:30.424Z,8.20
2023-01-22T12:16:25.083Z,16.50
2023-01-22T12:20:41.938Z,13.80
2023-01-22T12:24:29.329Z,7.60
2023-01-22T12:28:27.180Z,7.40
2023-01-22T12:32:04.887Z,15.00
2023-01-22T12:35:58.273Z,12.10
2023-01-22T12:39:54.863Z,14.80
2023-01-22T12:43:26.520Z,11.80
2023-01-22T12:47:46.458Z,15.70
2023-01-22T12:51:35.769Z,15.40
2023-01-22T12:55:03.093Z,24.10
2023-01-22T12:58:41.761Z,9.40
2023-01-22T13:02:28.430Z,15.70
2023-01-22T13:05:53.633Z,26.30
2023-01-22T13:10:07.331Z,17.20
2023-01-22T13:13:43.963Z,10.60
2023-01-22T13:17:29.931Z,20.50
2023-01-22T13:21:03.847Z,22.90
2023-01-22T13:24:35.070Z,17.70
2023-01-22T13:28:32.203Z,16.50
2023-01-22T13:32:22.206Z,17.30
2023-01-22T13:35:49.388Z,14.10
2023-01-22T13:39:46.592Z,12.80
2023-01-22T13:43:17.216Z,19.30
2023-01-22T13:46:51.430Z,14.20
2023-01-22T13:50:30.303Z,12.50
2023-01-22T13:54:06.230Z,13.90
2023-01-22T13:57:47.350Z,15.70
2023-01-22T14:01:31.523Z,21.70
2023-01-22T14:04:56.729Z,15.60
2023-01-22T14:08:48.673Z,21.90
2023-01-22T14:12:26.875Z,15.80
2023-01-22T14:16:00.246Z,17.40
2023-01-22T14:19:31.635Z,14.30
2023-01-22T14:23:09.447Z,18.10
2023-01-22T14:26:47.683Z,18.10
2023-01-22T14:30:42.620Z,17.30
2023-01-22T14:34:07.142Z,20.70
2023-01-22T14:38:09.498Z,16.00
2023-01-22T14:41:54.952Z,15.40
2023-01-22T14:45:20.462Z,13.00
2023-01-22T14:49:15.864Z,19.20
2023-01-22T14:52:43.829Z,19.90
2023-01-22T14:56:42.543Z,20.90
2023-01-22T15:00:07.529Z,18.70
2023-01-22T15:03:47.830Z,17.10
2023-01-22T15:07:43.060Z,19.30
2023-01-22T15:11:10.969Z,14.20
2023-01-22T15:14:46.508Z,18.20
2023-01-22T15:18:24.602Z,14.60
2023-01-22T15:22:03.585Z,20.80
2023-01-22T15:26:00.288Z,17.30
2023-01-22T15:29:26.992Z,15.30
2023-01-22T15:33:04.152Z,15.40
2023-01-22T15:36:42.677Z,25.30
2023-01-22T15:40:17.968Z,22.20
2023-01-22T15:44:01.088Z,19.20
2023-01-22T15:47:34.702Z,25.60
2023-01-22T15:51:11.982Z,16.40
2023-01-22T15:54:48.166Z,15.10
2023-01-22T15:58:25.461Z,10.90
2023-01-22T16:02:22.387Z,14.90
2023-01-22T16:06:12.505Z,22.10
2023-01-22T16:09:38.829Z,14.40
2023-01-22T16:13:16.990Z,22.20
2023-01-22T16:16:55.033Z,17.70
2023-01-22T16:20:49.656Z,7.20
2023-01-22T16:24:34.842Z,14.60
2023-01-22T16:27:58.859Z,16.20
2023-01-22T16:31:37.892Z,6.80
2023-01-22T16:35:19.546Z,10.00
2023-01-22T16:39:22.237Z,11.60
2023-01-22T16:43:01.908Z,16.30
2023-01-22T16:46:53.536Z,18.90
2023-01-22T16:50:18.882Z,15.00
2023-01-22T16:53:57.177Z,14.70
2023-01-22T16:57:56.193Z,8.90
2023-01-22T17:01:21.848Z,10.90
2023-01-22T17:04:59.354Z,19.50
2023-01-22T17:08:38.808Z,19.10
2023-01-22T17:12:16.109Z,10.50
2023-01-22T17:15:53.998Z,17.00
2023-01-22T17:19:29.959Z,13.50
2023-01-22T17:23:26.878Z,18.40
2023-01-22T17:27:17.808Z,24.50
2023-01-22T17:30:42.194Z,19.40
2023-01-22T17:34:19.636Z,24.60
2023-01-22T17:38:20.703Z,22.20
2023-01-22T17:41:49.890Z,14.80
2023-01-22T17:45:23.144Z,32.50
2023-01-22T17:49:20.914Z,22.10
2023-01-22T17:52:47.217Z,23.20
2023-01-22T17:56:46.661Z,21.40
2023-01-22T18:00:12.490Z,18.90
2023-01-22T18:03:50.363Z,24.60
2023-01-22T18:07:47.445Z,26.40
2023-01-22T18:11:32.597Z,21.10
2023-01-22T18:14:57.262Z,14.10
2023-01-22T18:18:36.969Z,23.00
2023-01-22T18:22:12.903Z,20.60
2023-01-22T18:25:55.623Z,25.50
2023-01-22T18:29:28.919Z,39.60
2023-01-22T18:33:24.727Z,32.10
2023-01-22T18:36:49.214Z,26.50
2023-01-22T18:40:27.397Z,25.10
2023-01-22T18:44:27.157Z,19.50
2023-01-22T18:47:54.912Z,20.80
2023-01-22T18:51:49.095Z,21.60
2023-01-22T18:55:18.322Z,22.70
2023-01-22T18:58:56.648Z,18.90
2023-01-22T19:02:55.962Z,29.00
2023-01-22T19:06:25.135Z,17.40
2023-01-22T19:10:18.381Z,16.90
2023-01-22T19:13:45.375Z,23.40
2023-01-22T19:17:39.941Z,12.40
2023-01-22T19:21:13.641Z,22.60
2023-01-22T19:24:43.707Z,31.30
2023-01-22T19:28:42.171Z,19.60
2023-01-22T19:32:08.969Z,20.30
2023-01-22T19:36:04.820Z,16.30
2023-01-22T19:39:49.693Z,31.90
2023-01-22T19:43:17.184Z,19.90
2023-01-22T19:46:53.744Z,30.80
2023-01-22T19:50:29.613Z,26.50
2023-01-22T19:54:31.952Z,23.70
2023-01-22T19:57:56.668Z,17.50
2023-01-22T20:01:56.636Z,31.20
2023-01-22T20:05:21.500Z,25.10
2023-01-22T20:09:04.076Z,19.40
2023-01-22T20:12:57.170Z,26.50
2023-01-22T20:16:26.251Z,17.50
2023-01-22T20:20:17.790Z,17.60
2023-01-22T20:23:43.588Z,22.50
2023-01-22T20:27:19.994Z,11.30
2023-01-22T20:31:00.025Z,17.60
2023-01-22T20:34:36.624Z,14.90
2023-01-22T20:38:33.906Z,17.20
2023-01-22T20:41:58.079Z,15.30
2023-01-22T20:45:36.821Z,18.10
2023-01-22T20:49:32.932Z,14.80
2023-01-22T20:53:15.857Z,12.10
2023-01-22T20:56:44.644Z,15.20
2023-01-22T21:00:17.999Z,16.00
2023-01-22T21:03:56.774Z,18.00
2023-01-22T21:07:33.368Z,15.40
2023-01-22T21:11:19.973Z,6.40
2023-01-22T21:14:54.973Z,13.40
2023-01-22T21:18:27.773Z,14.30
2023-01-22T21:22:04.732Z,14.70
2023-01-22T21:25:43.313Z,15.50
2023-01-22T21:29:22.142Z,14.30
2023-01-22T21:33:19.001Z,11.20
2023-01-22T21:37:03.453Z,12.70
2023-01-22T21:40:30.349Z,16.70
2023-01-22T21:44:47.954Z,13.20
2023-01-22T21:48:14.667Z,13.90
2023-01-22T21:52:09.611Z,19.80
2023-01-22T21:55:34.159Z,16.10
2023-01-22T21:59:12.414Z,21.60
2023-01-22T22:02:48.783Z,4.30
2023-01-22T22:06:31.173Z,15.90
2023-01-22T22:10:06.104Z,17.90
2023-01-22T22:13:42.307Z,19.40
2023-01-22T22:17:39.984Z,22.80
2023-01-22T22:21:08.917Z,16.70
2023-01-22T22:24:42.455Z,10.30
2023-01-22T22:28:22.015Z,19.50
2023-01-22T22:32:16.269Z,13.70
2023-01-22T22:35:40.197Z,16.40
2023-01-22T22:39:18.966Z,21.40
2023-01-22T22:42:55.496Z,25.10
2023-01-22T22:46:36.928Z,20.30
2023-01-22T22:50:11.316Z,22.90
2023-01-22T22:53:57.076Z,31.50
2023-01-22T22:57:26.394Z,29.20
2023-01-22T23:01:25.901Z,23.70
2023-01-22T23:05:10.095Z,22.30
2023-01-22T23:08:55.527Z,18.30
2023-01-22T23:12:20.916Z,13.70
2023-01-22T23:16:07.533Z,17.30
2023-01-22T23:19:43.226Z,24.30
2023-01-22T23:23:14.492Z,21.10
2023-01-22T23:27:09.643Z,22.60
2023-01-22T23:30:35.236Z,21.80
2023-01-22T23:34:32.810Z,20.70
2023-01-22T23:37:58.344Z,16.40
2023-01-22T23:41:36.564Z,22.00
2023-01-22T23:45:13.656Z,25.80
2023-01-22T23:48:54.295Z,17.50
2023-01-22T23:52:32.159Z,19.10
2023-01-22T23:56:07.256Z,22.50
2023-01-22T23:59:42.964Z,15.20
